Akaska, South Dakota
Current Conditions -  °F | °C
As of 5:52 AM on Saturday 01 Nov 2014 (Local Time) from KMBG Reporting Station
Clear Clear  
Wind Chill: 27°   Ceiling: Unl
Heat Index: 39°   Visibility: 10mi
Dew Point: 19°   Wind: 30mph
Humidity: 45%   Direction: 160°SSE
Pressure: 29.95"   Gusts: 39mph
Location:  45.33°N, 100.12°W
Report Text: KMBG 011052Z AUTO 16026G34KT 10SM CLR 04/M07 A2995 RMK AO2 PK WND 16035/1041 SLP155 T00391072
Loading
Personal Weather Stations






























Interactive Weather Map
Tropical Storm Tracking
New forecast layout! Learn more

10-Day Weather Forecast

Advertisements
Track Severe Weather on mobile